Time,TemperatureF,DewpointF,PressureIn,WindDirection,WindDirectionDegrees,WindSpeedMPH,WindSpeedGustMPH,Humidity,HourlyPrecipIn,Conditions,Clouds,dailyrainin,SoftwareType,DateUTC
2013-09-17 00:11:00,54.0,37.0,-100.00,SSE,152,1.0,2.0,53,0.00,,,-99.99,,2013-09-17 07:11:00,
2013-09-17 00:23:00,54.0,36.0,-100.00,SE,124,1.0,3.0,51,0.00,,,-99.99,,2013-09-17 07:23:00,
2013-09-17 00:32:00,54.0,36.0,-100.00,SE,124,1.0,3.0,51,0.00,,,-99.99,,2013-09-17 07:32:00,
2013-09-17 01:12:00,55.0,35.0,-100.00,ENE,69,3.0,9.0,46,0.00,,,-99.99,,2013-09-17 08:12:00,
2013-09-17 01:22:00,55.0,35.0,-100.00,ENE,69,3.0,9.0,46,0.00,,,-99.99,,2013-09-17 08:22:00,
2013-09-17 03:12:00,55.0,32.0,-100.00,SE,133,2.0,7.0,41,0.00,,,-99.99,,2013-09-17 10:12:00,
2013-09-17 03:23:00,56.0,33.0,-100.00,ENE,78,5.0,13.0,42,0.00,,,-99.99,,2013-09-17 10:23:00,
2013-09-17 03:42:00,52.0,34.0,-100.00,South,171,1.0,5.0,51,0.00,,,-99.99,,2013-09-17 10:42:00,
2013-09-17 04:11:00,53.0,34.0,-100.00,ESE,109,2.0,7.0,48,0.00,,,-99.99,,2013-09-17 11:11:00,
2013-09-17 04:22:00,51.0,34.0,-100.00,SSE,150,1.0,6.0,53,0.00,,,-99.99,,2013-09-17 11:22:00,
2013-09-17 04:33:00,51.0,34.0,-100.00,SSE,150,1.0,6.0,53,0.00,,,-99.99,,2013-09-17 11:33:00,
2013-09-17 04:42:00,51.0,34.0,-100.00,SSE,150,1.0,6.0,53,0.00,,,-99.99,,2013-09-17 11:42:00,
2013-09-17 05:12:00,52.0,36.0,-100.00,SE,136,2.0,9.0,54,0.00,,,-99.99,,2013-09-17 12:12:00,
2013-09-17 05:21:00,53.0,36.0,-100.00,East,93,3.0,9.0,53,0.00,,,-99.99,,2013-09-17 12:21:00,
2013-09-17 05:42:00,55.0,37.0,-100.00,East,96,2.0,8.0,51,0.00,,,-99.99,,2013-09-17 12:42:00,
2013-09-17 05:52:00,55.0,37.0,-100.00,East,96,2.0,8.0,51,0.00,,,-99.99,,2013-09-17 12:52:00,
2013-09-17 06:11:00,54.0,37.0,-100.00,East,80,2.0,7.0,52,0.00,,,-99.99,,2013-09-17 13:11:00,
2013-09-17 06:22:00,54.0,37.0,-100.00,East,80,2.0,7.0,52,0.00,,,-99.99,,2013-09-17 13:22:00,
2013-09-17 06:42:00,55.0,38.0,-100.00,NE,49,4.0,7.0,52,0.00,,,-99.99,,2013-09-17 13:42:00,
2013-09-17 06:52:00,55.0,38.0,-100.00,NE,49,4.0,7.0,52,0.00,,,-99.99,,2013-09-17 13:52:00,
2013-09-17 07:21:00,55.0,39.0,-100.00,NE,38,2.0,8.0,55,0.00,,,-99.99,,2013-09-17 14:21:00,
2013-09-17 07:40:00,54.0,40.0,-100.00,NE,52,2.0,7.0,59,0.00,,,-99.99,,2013-09-17 14:40:00,
2013-09-17 07:42:00,52.0,39.0,-100.00,South,171,1.0,5.0,61,0.00,,,-99.99,,2013-09-17 14:42:00,
2013-09-17 07:52:00,53.0,40.0,-100.00,NW,304,1.0,8.0,61,0.00,,,-99.99,,2013-09-17 14:52:00,
2013-09-17 08:02:00,53.0,40.0,-100.00,NW,304,1.0,8.0,61,0.00,,,-99.99,,2013-09-17 15:02:00,
2013-09-17 08:22:00,54.0,40.0,-100.00,NE,52,2.0,7.0,59,0.00,,,-99.99,,2013-09-17 15:22:00,
2013-09-17 08:34:00,54.0,40.0,-100.00,NE,52,2.0,7.0,59,0.00,,,-99.99,,2013-09-17 15:34:00,
2013-09-17 09:23:00,58.0,37.0,-100.00,ENE,61,3.0,11.0,46,0.00,,,-99.99,,2013-09-17 16:23:00,
2013-09-17 09:32:00,58.0,37.0,-100.00,ENE,61,3.0,11.0,46,0.00,,,-99.99,,2013-09-17 16:32:00,
2013-09-17 10:12:00,59.0,36.0,-100.00,NE,54,3.0,7.0,42,0.00,,,-99.99,,2013-09-17 17:12:00,
2013-09-17 10:23:00,60.0,36.0,-100.00,NNE,28,5.0,13.0,40,0.00,,,-99.99,,2013-09-17 17:23:00,
2013-09-17 10:43:00,61.0,36.0,-100.00,NE,47,5.0,11.0,40,0.00,,,-99.99,,2013-09-17 17:43:00,
2013-09-17 10:53:00,61.0,36.0,-100.00,NE,47,5.0,11.0,40,0.00,,,-99.99,,2013-09-17 17:53:00,
2013-09-17 11:02:00,61.0,36.0,-100.00,NE,47,5.0,11.0,40,0.00,,,-99.99,,2013-09-17 18:02:00,
2013-09-17 11:21:00,61.0,35.0,-100.00,ENE,61,6.0,14.0,37,0.00,,,-99.99,,2013-09-17 18:21:00,
2013-09-17 11:42:00,62.0,34.0,-100.00,NE,47,6.0,13.0,35,0.00,,,-99.99,,2013-09-17 18:42:00,
2013-09-17 11:52:00,63.0,34.0,-100.00,NE,45,8.0,14.0,34,0.00,,,-99.99,,2013-09-17 18:52:00,
2013-09-17 12:11:00,62.0,34.0,-100.00,NE,41,7.0,15.0,35,0.00,,,-99.99,,2013-09-17 19:11:00,
2013-09-17 12:21:00,62.0,34.0,-100.00,NE,41,7.0,15.0,35,0.00,,,-99.99,,2013-09-17 19:21:00,
2013-09-17 12:42:00,64.0,36.0,-100.00,NE,38,6.0,15.0,35,0.00,,,-99.99,,2013-09-17 19:42:00,
2013-09-17 12:52:00,63.0,33.0,-100.00,NE,35,6.0,18.0,33,0.00,,,-99.99,,2013-09-17 19:52:00,
2013-09-17 13:02:00,63.0,33.0,-100.00,NE,35,6.0,18.0,33,0.00,,,-99.99,,2013-09-17 20:02:00,
2013-09-17 13:22:00,64.0,34.0,-100.00,NE,42,7.0,14.0,33,0.00,,,-99.99,,2013-09-17 20:22:00,
2013-09-17 13:42:00,64.0,34.0,-100.00,NE,40,5.0,12.0,33,0.00,,,-99.99,,2013-09-17 20:42:00,
2013-09-17 13:52:00,64.0,33.0,-100.00,NE,42,7.0,14.0,31,0.00,,,-99.99,,2013-09-17 20:52:00,
2013-09-17 14:01:00,64.0,33.0,-100.00,NE,42,7.0,14.0,31,0.00,,,-99.99,,2013-09-17 21:01:00,
2013-09-17 14:22:00,64.0,35.0,-100.00,NE,41,4.0,11.0,34,-99.99,,,-99.99,,2013-09-17 21:22:00,
2013-09-17 14:44:00,65.0,31.0,-100.00,NE,49,5.0,12.0,28,0.00,,,-99.99,,2013-09-17 21:44:00,
2013-09-17 14:54:00,65.0,31.0,-100.00,NE,49,5.0,12.0,28,0.00,,,-99.99,,2013-09-17 21:54:00,
2013-09-17 15:24:00,64.0,22.0,-100.00,NE,49,8.0,14.0,20,0.00,,,-99.99,,2013-09-17 22:24:00,
2013-09-17 15:43:00,64.0,23.0,-100.00,NE,47,6.0,12.0,21,0.00,,,-99.99,,2013-09-17 22:43:00,
2013-09-17 16:12:00,64.0,18.0,-100.00,NE,45,8.0,14.0,17,0.00,,,-99.99,,2013-09-17 23:12:00,
2013-09-17 16:21:00,64.0,25.0,-100.00,NNE,27,5.0,12.0,23,0.00,,,-99.99,,2013-09-17 23:21:00,
2013-09-17 16:34:00,64.0,25.0,-100.00,NNE,27,5.0,12.0,23,0.00,,,-99.99,,2013-09-17 23:34:00,
2013-09-17 17:11:00,63.0,27.0,-100.00,NE,47,6.0,12.0,25,0.00,,,-99.99,,2013-09-18 00:11:00,
2013-09-17 17:22:00,62.0,28.0,-100.00,NNE,32,5.0,14.0,27,0.00,,,-99.99,,2013-09-18 00:22:00,
2013-09-17 17:42:00,61.0,29.0,-100.00,NE,40,7.0,13.0,29,0.00,,,-99.99,,2013-09-18 00:42:00,
2013-09-17 17:52:00,61.0,29.0,-100.00,NE,40,7.0,13.0,29,0.00,,,-99.99,,2013-09-18 00:52:00,
2013-09-17 18:11:00,60.0,27.0,-100.00,NE,45,7.0,14.0,28,0.00,,,-99.99,,2013-09-18 01:11:00,
2013-09-17 18:21:00,60.0,27.0,-100.00,NE,45,7.0,14.0,28,0.00,,,-99.99,,2013-09-18 01:21:00,
2013-09-17 18:42:00,59.0,28.0,-100.00,NE,52,7.0,15.0,30,0.00,,,-99.99,,2013-09-18 01:42:00,
2013-09-17 18:52:00,58.0,28.0,-100.00,ENE,58,6.0,11.0,31,0.00,,,-99.99,,2013-09-18 01:52:00,
2013-09-17 19:11:00,57.0,27.0,-100.00,NE,48,4.0,12.0,32,0.00,,,-99.99,,2013-09-18 02:11:00,
2013-09-17 19:22:00,57.0,27.0,-100.00,NE,48,4.0,12.0,32,0.00,,,-99.99,,2013-09-18 02:22:00,
2013-09-17 19:32:00,57.0,27.0,-100.00,NE,48,4.0,12.0,32,0.00,,,-99.99,,2013-09-18 02:32:00,
2013-09-17 19:41:00,53.0,38.0,-100.00,SSW,196,2.0,7.0,56,0.00,,,-99.99,,2013-09-18 02:41:00,
2013-09-17 20:23:00,53.0,38.0,-100.00,SSW,196,2.0,7.0,56,0.00,,,-99.99,,2013-09-18 03:23:00,
2013-09-17 20:35:00,53.0,38.0,-100.00,SSW,196,2.0,7.0,56,0.00,,,-99.99,,2013-09-18 03:35:00,
2013-09-17 21:24:00,49.0,34.0,-100.00,ESE,109,0.0,2.0,56,0.00,,,-99.99,,2013-09-18 04:24:00,
2013-09-17 21:44:00,48.0,34.0,-100.00,ESE,110,1.0,6.0,58,0.00,,,-99.99,,2013-09-18 04:44:00,
2013-09-17 22:12:00,47.0,34.0,-100.00,East,99,0.0,2.0,60,0.00,,,-99.99,,2013-09-18 05:12:00,
2013-09-17 22:23:00,47.0,34.0,-100.00,East,99,0.0,2.0,60,0.00,,,-99.99,,2013-09-18 05:23:00,
2013-09-17 22:43:00,45.0,33.0,-100.00,SSE,155,0.0,1.0,63,0.00,,,-99.99,,2013-09-18 05:43:00,
2013-09-17 23:12:00,46.0,32.0,-100.00,South,172,1.0,2.0,57,0.00,,,-99.99,,2013-09-18 06:12:00,
2013-09-17 23:22:00,46.0,32.0,-100.00,South,172,1.0,2.0,57,0.00,,,-99.99,,2013-09-18 06:22:00,
2013-09-17 23:42:00,46.0,30.0,-100.00,SSE,154,0.0,2.0,54,0.00,,,-99.99,,2013-09-18 06:42:00,
2013-09-17 23:52:00,46.0,30.0,-100.00,SE,138,0.0,2.0,54,0.00,,,-99.99,,2013-09-18 06:52:00,